sensor_id;sensor_type;location;lat;lon;timestamp;P1;durP1;ratioP1;P2;durP2;ratioP2
12910;SDS011;6523;49.758;6.120;2023-03-01T00:01:23;7.17;;;5.50;;
12910;SDS011;6523;49.758;6.120;2023-03-01T00:03:51;8.33;;;5.87;;
12910;SDS011;6523;49.758;6.120;2023-03-01T00:06:17;8.83;;;6.37;;
12910;SDS011;6523;49.758;6.120;2023-03-01T00:08:43;6.97;;;5.50;;
12910;SDS011;6523;49.758;6.120;2023-03-01T00:11:19;10.37;;;7.43;;
12910;SDS011;6523;49.758;6.120;2023-03-01T00:13:50;9.93;;;7.67;;
12910;SDS011;6523;49.758;6.120;2023-03-01T00:16:22;6.97;;;5.80;;
12910;SDS011;6523;49.758;6.120;2023-03-01T00:18:56;9.43;;;5.90;;
12910;SDS011;6523;49.758;6.120;2023-03-01T00:21:23;7.07;;;6.10;;
12910;SDS011;6523;49.758;6.120;2023-03-01T00:23:49;8.20;;;6.67;;
12910;SDS011;6523;49.758;6.120;2023-03-01T00:26:15;8.03;;;5.90;;
12910;SDS011;6523;49.758;6.120;2023-03-01T00:28:42;7.70;;;6.07;;
12910;SDS011;6523;49.758;6.120;2023-03-01T00:31:10;9.10;;;6.93;;
12910;SDS011;6523;49.758;6.120;2023-03-01T00:33:38;10.27;;;6.63;;
12910;SDS011;6523;49.758;6.120;2023-03-01T00:36:04;7.77;;;6.43;;
12910;SDS011;6523;49.758;6.120;2023-03-01T00:38:30;8.13;;;5.57;;
12910;SDS011;6523;49.758;6.120;2023-03-01T00:41:04;7.20;;;5.87;;
12910;SDS011;6523;49.758;6.120;2023-03-01T00:43:34;8.83;;;6.10;;
12910;SDS011;6523;49.758;6.120;2023-03-01T00:46:08;8.83;;;5.70;;
12910;SDS011;6523;49.758;6.120;2023-03-01T00:48:36;7.43;;;5.97;;
12910;SDS011;6523;49.758;6.120;2023-03-01T00:51:06;7.27;;;5.70;;
12910;SDS011;6523;49.758;6.120;2023-03-01T00:53:33;7.13;;;6.00;;
12910;SDS011;6523;49.758;6.120;2023-03-01T00:55:59;8.20;;;6.23;;
12910;SDS011;6523;49.758;6.120;2023-03-01T00:58:25;9.13;;;6.90;;
12910;SDS011;6523;49.758;6.120;2023-03-01T01:00:51;11.53;;;7.73;;
12910;SDS011;6523;49.758;6.120;2023-03-01T01:03:19;10.00;;;6.97;;
12910;SDS011;6523;49.758;6.120;2023-03-01T01:05:45;9.20;;;6.80;;
12910;SDS011;6523;49.758;6.120;2023-03-01T01:08:11;7.63;;;6.50;;
12910;SDS011;6523;49.758;6.120;2023-03-01T01:10:37;10.10;;;7.30;;
12910;SDS011;6523;49.758;6.120;2023-03-01T01:13:03;9.57;;;6.93;;
12910;SDS011;6523;49.758;6.120;2023-03-01T01:15:31;10.33;;;6.90;;
12910;SDS011;6523;49.758;6.120;2023-03-01T01:17:58;9.20;;;7.20;;
12910;SDS011;6523;49.758;6.120;2023-03-01T01:20:24;9.97;;;6.40;;
12910;SDS011;6523;49.758;6.120;2023-03-01T01:22:49;9.00;;;6.97;;
12910;SDS011;6523;49.758;6.120;2023-03-01T01:25:16;10.17;;;7.20;;
12910;SDS011;6523;49.758;6.120;2023-03-01T01:27:41;10.83;;;7.77;;
12910;SDS011;6523;49.758;6.120;2023-03-01T01:30:07;8.90;;;6.70;;
12910;SDS011;6523;49.758;6.120;2023-03-01T01:32:33;8.17;;;6.73;;
12910;SDS011;6523;49.758;6.120;2023-03-01T01:34:59;9.07;;;6.87;;
12910;SDS011;6523;49.758;6.120;2023-03-01T01:37:24;9.77;;;6.97;;
12910;SDS011;6523;49.758;6.120;2023-03-01T01:39:56;10.00;;;7.27;;
12910;SDS011;6523;49.758;6.120;2023-03-01T01:42:23;9.47;;;7.73;;
12910;SDS011;6523;49.758;6.120;2023-03-01T01:45:15;8.80;;;7.03;;
12910;SDS011;6523;49.758;6.120;2023-03-01T01:47:50;8.97;;;6.53;;
12910;SDS011;6523;49.758;6.120;2023-03-01T01:50:17;8.70;;;6.80;;
12910;SDS011;6523;49.758;6.120;2023-03-01T01:52:44;10.03;;;7.03;;
12910;SDS011;6523;49.758;6.120;2023-03-01T01:55:14;8.63;;;6.97;;
12910;SDS011;6523;49.758;6.120;2023-03-01T01:57:46;8.80;;;7.37;;
12910;SDS011;6523;49.758;6.120;2023-03-01T02:00:17;8.87;;;7.10;;
12910;SDS011;6523;49.758;6.120;2023-03-01T02:02:45;9.93;;;7.23;;
12910;SDS011;6523;49.758;6.120;2023-03-01T02:05:18;11.97;;;7.70;;
12910;SDS011;6523;49.758;6.120;2023-03-01T02:08:06;10.03;;;7.80;;
12910;SDS011;6523;49.758;6.120;2023-03-01T02:10:33;8.87;;;6.50;;
12910;SDS011;6523;49.758;6.120;2023-03-01T02:13:00;8.33;;;7.10;;
12910;SDS011;6523;49.758;6.120;2023-03-01T02:15:27;10.23;;;7.47;;
12910;SDS011;6523;49.758;6.120;2023-03-01T02:17:57;10.87;;;6.83;;
12910;SDS011;6523;49.758;6.120;2023-03-01T02:22:57;8.50;;;7.03;;
12910;SDS011;6523;49.758;6.120;2023-03-01T02:30:40;8.73;;;6.80;;
12910;SDS011;6523;49.758;6.120;2023-03-01T02:33:27;10.20;;;7.20;;
12910;SDS011;6523;49.758;6.120;2023-03-01T02:35:57;8.57;;;6.87;;
12910;SDS011;6523;49.758;6.120;2023-03-01T02:38:25;9.80;;;7.30;;
12910;SDS011;6523;49.758;6.120;2023-03-01T02:40:51;9.23;;;7.63;;
12910;SDS011;6523;49.758;6.120;2023-03-01T02:43:18;9.83;;;7.30;;
12910;SDS011;6523;49.758;6.120;2023-03-01T02:45:50;10.93;;;7.87;;
12910;SDS011;6523;49.758;6.120;2023-03-01T02:48:18;10.90;;;7.37;;
12910;SDS011;6523;49.758;6.120;2023-03-01T02:51:03;10.63;;;7.63;;
12910;SDS011;6523;49.758;6.120;2023-03-01T02:53:54;12.87;;;7.37;;
12910;SDS011;6523;49.758;6.120;2023-03-01T02:56:21;9.63;;;6.67;;
12910;SDS011;6523;49.758;6.120;2023-03-01T02:58:47;9.70;;;7.47;;
12910;SDS011;6523;49.758;6.120;2023-03-01T03:01:16;9.77;;;7.53;;
12910;SDS011;6523;49.758;6.120;2023-03-01T03:03:43;10.73;;;7.53;;
12910;SDS011;6523;49.758;6.120;2023-03-01T03:06:09;11.77;;;8.13;;
12910;SDS011;6523;49.758;6.120;2023-03-01T03:08:35;9.77;;;7.07;;
12910;SDS011;6523;49.758;6.120;2023-03-01T03:11:00;10.53;;;7.63;;
12910;SDS011;6523;49.758;6.120;2023-03-01T03:13:26;9.00;;;7.40;;
12910;SDS011;6523;49.758;6.120;2023-03-01T03:15:53;13.80;;;7.90;;
12910;SDS011;6523;49.758;6.120;2023-03-01T03:18:20;10.63;;;8.43;;
12910;SDS011;6523;49.758;6.120;2023-03-01T03:20:46;12.40;;;8.33;;
12910;SDS011;6523;49.758;6.120;2023-03-01T03:23:11;11.67;;;8.20;;
12910;SDS011;6523;49.758;6.120;2023-03-01T03:25:37;11.40;;;8.00;;
12910;SDS011;6523;49.758;6.120;2023-03-01T03:28:03;14.13;;;9.27;;
12910;SDS011;6523;49.758;6.120;2023-03-01T03:30:34;13.33;;;8.50;;
12910;SDS011;6523;49.758;6.120;2023-03-01T03:33:01;13.30;;;8.83;;
12910;SDS011;6523;49.758;6.120;2023-03-01T03:35:32;11.50;;;9.17;;
12910;SDS011;6523;49.758;6.120;2023-03-01T03:38:00;10.37;;;8.03;;
12910;SDS011;6523;49.758;6.120;2023-03-01T03:40:37;12.37;;;8.57;;
12910;SDS011;6523;49.758;6.120;2023-03-01T03:43:06;12.93;;;8.87;;
12910;SDS011;6523;49.758;6.120;2023-03-01T03:45:33;12.13;;;8.43;;
12910;SDS011;6523;49.758;6.120;2023-03-01T03:48:00;11.00;;;8.77;;
12910;SDS011;6523;49.758;6.120;2023-03-01T03:50:26;15.87;;;9.20;;
12910;SDS011;6523;49.758;6.120;2023-03-01T03:52:52;11.33;;;8.37;;
12910;SDS011;6523;49.758;6.120;2023-03-01T03:55:17;11.47;;;8.87;;
12910;SDS011;6523;49.758;6.120;2023-03-01T03:57:44;13.07;;;8.90;;
12910;SDS011;6523;49.758;6.120;2023-03-01T04:00:19;10.60;;;8.40;;
12910;SDS011;6523;49.758;6.120;2023-03-01T04:02:49;14.10;;;9.97;;
12910;SDS011;6523;49.758;6.120;2023-03-01T04:05:16;12.43;;;8.83;;
12910;SDS011;6523;49.758;6.120;2023-03-01T04:07:44;14.63;;;9.20;;
12910;SDS011;6523;49.758;6.120;2023-03-01T04:10:19;15.53;;;9.67;;
12910;SDS011;6523;49.758;6.120;2023-03-01T04:12:45;13.97;;;9.30;;
12910;SDS011;6523;49.758;6.120;2023-03-01T04:15:11;15.23;;;9.57;;
12910;SDS011;6523;49.758;6.120;2023-03-01T04:17:40;12.47;;;9.53;;
12910;SDS011;6523;49.758;6.120;2023-03-01T04:20:11;13.77;;;8.77;;
12910;SDS011;6523;49.758;6.120;2023-03-01T04:22:42;13.00;;;9.33;;
12910;SDS011;6523;49.758;6.120;2023-03-01T04:25:08;13.03;;;9.40;;
12910;SDS011;6523;49.758;6.120;2023-03-01T04:27:34;14.67;;;9.27;;
12910;SDS011;6523;49.758;6.120;2023-03-01T04:30:01;12.50;;;9.00;;
12910;SDS011;6523;49.758;6.120;2023-03-01T04:32:28;12.87;;;8.97;;
12910;SDS011;6523;49.758;6.120;2023-03-01T04:34:53;12.23;;;8.57;;
12910;SDS011;6523;49.758;6.120;2023-03-01T04:37:19;12.50;;;9.47;;
12910;SDS011;6523;49.758;6.120;2023-03-01T04:39:44;12.23;;;8.83;;
12910;SDS011;6523;49.758;6.120;2023-03-01T04:42:11;13.43;;;9.43;;
12910;SDS011;6523;49.758;6.120;2023-03-01T04:44:36;15.20;;;9.00;;
12910;SDS011;6523;49.758;6.120;2023-03-01T04:47:02;13.83;;;9.50;;
12910;SDS011;6523;49.758;6.120;2023-03-01T04:49:28;12.93;;;9.40;;
12910;SDS011;6523;49.758;6.120;2023-03-01T04:51:53;11.53;;;9.13;;
12910;SDS011;6523;49.758;6.120;2023-03-01T04:54:19;12.47;;;9.20;;
12910;SDS011;6523;49.758;6.120;2023-03-01T04:56:44;12.33;;;9.13;;
12910;SDS011;6523;49.758;6.120;2023-03-01T04:59:10;13.60;;;10.07;;
12910;SDS011;6523;49.758;6.120;2023-03-01T05:01:37;12.43;;;8.60;;
12910;SDS011;6523;49.758;6.120;2023-03-01T05:04:03;11.67;;;8.77;;
12910;SDS011;6523;49.758;6.120;2023-03-01T05:06:30;13.50;;;9.20;;
12910;SDS011;6523;49.758;6.120;2023-03-01T05:08:56;14.90;;;9.53;;
12910;SDS011;6523;49.758;6.120;2023-03-01T05:11:22;11.83;;;9.07;;
12910;SDS011;6523;49.758;6.120;2023-03-01T05:13:48;13.90;;;9.73;;
12910;SDS011;6523;49.758;6.120;2023-03-01T05:16:14;14.67;;;9.60;;
12910;SDS011;6523;49.758;6.120;2023-03-01T05:18:41;13.17;;;9.40;;
12910;SDS011;6523;49.758;6.120;2023-03-01T05:21:12;13.37;;;9.47;;
12910;SDS011;6523;49.758;6.120;2023-03-01T05:23:41;15.57;;;10.23;;
12910;SDS011;6523;49.758;6.120;2023-03-01T05:26:07;14.57;;;9.87;;
12910;SDS011;6523;49.758;6.120;2023-03-01T05:28:33;15.43;;;9.57;;
12910;SDS011;6523;49.758;6.120;2023-03-01T05:31:00;14.80;;;10.07;;
12910;SDS011;6523;49.758;6.120;2023-03-01T05:33:26;13.90;;;9.60;;
12910;SDS011;6523;49.758;6.120;2023-03-01T05:35:52;15.50;;;9.47;;
12910;SDS011;6523;49.758;6.120;2023-03-01T05:38:18;16.27;;;9.87;;
12910;SDS011;6523;49.758;6.120;2023-03-01T05:40:45;15.23;;;9.67;;
12910;SDS011;6523;49.758;6.120;2023-03-01T05:43:13;15.13;;;9.90;;
12910;SDS011;6523;49.758;6.120;2023-03-01T05:45:40;17.33;;;10.23;;
12910;SDS011;6523;49.758;6.120;2023-03-01T05:48:06;15.90;;;9.97;;
12910;SDS011;6523;49.758;6.120;2023-03-01T05:50:37;16.17;;;9.70;;
12910;SDS011;6523;49.758;6.120;2023-03-01T05:53:05;15.80;;;10.00;;
12910;SDS011;6523;49.758;6.120;2023-03-01T05:55:34;14.13;;;10.10;;
12910;SDS011;6523;49.758;6.120;2023-03-01T05:58:02;16.33;;;10.70;;
12910;SDS011;6523;49.758;6.120;2023-03-01T06:00:30;16.17;;;10.97;;
12910;SDS011;6523;49.758;6.120;2023-03-01T06:02:56;13.37;;;10.23;;
12910;SDS011;6523;49.758;6.120;2023-03-01T06:05:23;16.17;;;10.30;;
12910;SDS011;6523;49.758;6.120;2023-03-01T06:07:49;16.13;;;10.67;;
12910;SDS011;6523;49.758;6.120;2023-03-01T06:10:15;14.77;;;10.33;;
12910;SDS011;6523;49.758;6.120;2023-03-01T06:12:42;15.17;;;10.03;;
12910;SDS011;6523;49.758;6.120;2023-03-01T06:15:09;16.87;;;10.80;;
12910;SDS011;6523;49.758;6.120;2023-03-01T06:17:36;13.60;;;9.90;;
12910;SDS011;6523;49.758;6.120;2023-03-01T06:20:04;14.93;;;9.60;;
12910;SDS011;6523;49.758;6.120;2023-03-01T06:22:31;13.97;;;9.63;;
12910;SDS011;6523;49.758;6.120;2023-03-01T06:24:57;18.13;;;10.37;;
12910;SDS011;6523;49.758;6.120;2023-03-01T06:27:22;15.83;;;9.90;;
12910;SDS011;6523;49.758;6.120;2023-03-01T06:29:48;12.70;;;9.50;;
12910;SDS011;6523;49.758;6.120;2023-03-01T06:32:13;15.03;;;9.77;;
12910;SDS011;6523;49.758;6.120;2023-03-01T06:34:39;13.47;;;9.80;;
12910;SDS011;6523;49.758;6.120;2023-03-01T06:37:05;15.17;;;9.93;;
12910;SDS011;6523;49.758;6.120;2023-03-01T06:39:32;13.70;;;9.47;;
12910;SDS011;6523;49.758;6.120;2023-03-01T06:41:58;14.80;;;9.43;;
12910;SDS011;6523;49.758;6.120;2023-03-01T06:44:23;15.07;;;9.80;;
12910;SDS011;6523;49.758;6.120;2023-03-01T06:46:49;15.87;;;10.00;;
12910;SDS011;6523;49.758;6.120;2023-03-01T06:49:15;14.13;;;10.17;;
12910;SDS011;6523;49.758;6.120;2023-03-01T06:51:42;15.67;;;10.70;;
12910;SDS011;6523;49.758;6.120;2023-03-01T06:54:08;15.50;;;10.07;;
12910;SDS011;6523;49.758;6.120;2023-03-01T06:56:34;15.30;;;10.37;;
12910;SDS011;6523;49.758;6.120;2023-03-01T06:59:00;15.90;;;10.70;;
12910;SDS011;6523;49.758;6.120;2023-03-01T07:01:25;16.97;;;10.80;;
12910;SDS011;6523;49.758;6.120;2023-03-01T07:03:51;16.63;;;11.00;;
12910;SDS011;6523;49.758;6.120;2023-03-01T07:06:17;16.13;;;10.53;;
12910;SDS011;6523;49.758;6.120;2023-03-01T07:08:42;17.20;;;11.07;;
12910;SDS011;6523;49.758;6.120;2023-03-01T07:11:08;15.80;;;10.70;;
12910;SDS011;6523;49.758;6.120;2023-03-01T07:13:34;17.10;;;11.30;;
12910;SDS011;6523;49.758;6.120;2023-03-01T07:15:59;13.93;;;10.73;;
12910;SDS011;6523;49.758;6.120;2023-03-01T07:18:25;15.40;;;10.53;;
12910;SDS011;6523;49.758;6.120;2023-03-01T07:20:50;13.93;;;10.10;;
12910;SDS011;6523;49.758;6.120;2023-03-01T07:23:16;16.40;;;10.90;;
12910;SDS011;6523;49.758;6.120;2023-03-01T07:25:41;16.47;;;10.93;;
12910;SDS011;6523;49.758;6.120;2023-03-01T07:28:07;15.73;;;11.00;;
12910;SDS011;6523;49.758;6.120;2023-03-01T07:30:32;16.70;;;11.27;;
12910;SDS011;6523;49.758;6.120;2023-03-01T07:32:58;18.03;;;11.33;;
12910;SDS011;6523;49.758;6.120;2023-03-01T07:35:27;17.13;;;11.27;;
12910;SDS011;6523;49.758;6.120;2023-03-01T07:37:53;16.70;;;10.87;;
12910;SDS011;6523;49.758;6.120;2023-03-01T07:40:18;14.60;;;10.57;;
12910;SDS011;6523;49.758;6.120;2023-03-01T07:42:44;16.33;;;11.33;;
12910;SDS011;6523;49.758;6.120;2023-03-01T07:45:10;15.57;;;10.57;;
12910;SDS011;6523;49.758;6.120;2023-03-01T07:47:36;16.27;;;11.63;;
12910;SDS011;6523;49.758;6.120;2023-03-01T07:50:02;17.33;;;11.77;;
12910;SDS011;6523;49.758;6.120;2023-03-01T07:52:28;16.93;;;11.27;;
12910;SDS011;6523;49.758;6.120;2023-03-01T07:54:55;15.57;;;11.20;;
12910;SDS011;6523;49.758;6.120;2023-03-01T07:57:21;19.80;;;12.43;;
12910;SDS011;6523;49.758;6.120;2023-03-01T07:59:47;17.80;;;12.47;;
12910;SDS011;6523;49.758;6.120;2023-03-01T08:02:12;18.57;;;11.33;;
12910;SDS011;6523;49.758;6.120;2023-03-01T08:04:39;17.47;;;11.57;;
12910;SDS011;6523;49.758;6.120;2023-03-01T08:07:06;18.80;;;11.97;;
12910;SDS011;6523;49.758;6.120;2023-03-01T08:09:31;18.57;;;11.57;;
12910;SDS011;6523;49.758;6.120;2023-03-01T08:12:00;21.67;;;11.97;;
12910;SDS011;6523;49.758;6.120;2023-03-01T08:14:25;20.23;;;12.17;;
12910;SDS011;6523;49.758;6.120;2023-03-01T08:16:51;17.87;;;11.93;;
12910;SDS011;6523;49.758;6.120;2023-03-01T08:19:16;19.37;;;12.30;;
12910;SDS011;6523;49.758;6.120;2023-03-01T08:21:42;20.23;;;11.67;;
12910;SDS011;6523;49.758;6.120;2023-03-01T08:24:08;18.97;;;13.23;;
12910;SDS011;6523;49.758;6.120;2023-03-01T08:26:35;19.77;;;12.23;;
12910;SDS011;6523;49.758;6.120;2023-03-01T08:29:01;18.47;;;12.80;;
12910;SDS011;6523;49.758;6.120;2023-03-01T08:31:31;18.33;;;12.07;;
12910;SDS011;6523;49.758;6.120;2023-03-01T08:34:00;19.97;;;12.53;;
12910;SDS011;6523;49.758;6.120;2023-03-01T08:36:32;19.73;;;12.80;;
12910;SDS011;6523;49.758;6.120;2023-03-01T08:39:00;18.97;;;12.70;;
12910;SDS011;6523;49.758;6.120;2023-03-01T08:41:25;16.53;;;11.77;;
12910;SDS011;6523;49.758;6.120;2023-03-01T08:43:51;21.93;;;13.13;;
12910;SDS011;6523;49.758;6.120;2023-03-01T08:46:17;23.17;;;13.23;;
12910;SDS011;6523;49.758;6.120;2023-03-01T08:48:43;22.07;;;14.00;;
12910;SDS011;6523;49.758;6.120;2023-03-01T08:51:10;21.43;;;12.47;;
12910;SDS011;6523;49.758;6.120;2023-03-01T08:53:38;21.77;;;13.07;;
12910;SDS011;6523;49.758;6.120;2023-03-01T08:56:04;21.97;;;13.00;;
12910;SDS011;6523;49.758;6.120;2023-03-01T08:58:30;20.93;;;13.20;;
12910;SDS011;6523;49.758;6.120;2023-03-01T09:00:55;18.97;;;12.23;;
12910;SDS011;6523;49.758;6.120;2023-03-01T09:03:21;19.80;;;13.70;;
12910;SDS011;6523;49.758;6.120;2023-03-01T09:05:48;21.50;;;13.40;;
12910;SDS011;6523;49.758;6.120;2023-03-01T09:08:15;19.70;;;12.57;;
12910;SDS011;6523;49.758;6.120;2023-03-01T09:10:43;24.30;;;13.83;;
12910;SDS011;6523;49.758;6.120;2023-03-01T09:13:09;22.63;;;12.17;;
12910;SDS011;6523;49.758;6.120;2023-03-01T09:15:38;19.57;;;13.07;;
12910;SDS011;6523;49.758;6.120;2023-03-01T09:18:04;21.53;;;13.20;;
12910;SDS011;6523;49.758;6.120;2023-03-01T09:20:31;17.03;;;12.60;;
12910;SDS011;6523;49.758;6.120;2023-03-01T09:22:57;20.20;;;12.73;;
12910;SDS011;6523;49.758;6.120;2023-03-01T09:25:23;22.17;;;13.90;;
12910;SDS011;6523;49.758;6.120;2023-03-01T09:27:52;20.57;;;13.43;;
12910;SDS011;6523;49.758;6.120;2023-03-01T09:30:18;20.23;;;13.90;;
12910;SDS011;6523;49.758;6.120;2023-03-01T09:32:44;19.47;;;13.00;;
12910;SDS011;6523;49.758;6.120;2023-03-01T09:35:10;20.70;;;13.93;;
12910;SDS011;6523;49.758;6.120;2023-03-01T09:37:36;20.87;;;13.17;;
12910;SDS011;6523;49.758;6.120;2023-03-01T09:40:04;23.00;;;13.53;;
12910;SDS011;6523;49.758;6.120;2023-03-01T09:42:32;17.80;;;12.47;;
12910;SDS011;6523;49.758;6.120;2023-03-01T09:45:45;22.40;;;13.87;;
12910;SDS011;6523;49.758;6.120;2023-03-01T09:47:54;19.37;;;13.80;;
12910;SDS011;6523;49.758;6.120;2023-03-01T09:50:21;18.77;;;12.70;;
12910;SDS011;6523;49.758;6.120;2023-03-01T09:52:50;21.47;;;13.90;;
12910;SDS011;6523;49.758;6.120;2023-03-01T09:58:18;21.33;;;13.93;;
12910;SDS011;6523;49.758;6.120;2023-03-01T10:00:56;21.63;;;12.93;;
12910;SDS011;6523;49.758;6.120;2023-03-01T10:03:33;20.27;;;13.43;;
12910;SDS011;6523;49.758;6.120;2023-03-01T10:06:21;18.53;;;13.07;;
12910;SDS011;6523;49.758;6.120;2023-03-01T10:11:49;22.37;;;14.17;;
12910;SDS011;6523;49.758;6.120;2023-03-01T10:16:51;20.90;;;14.07;;
12910;SDS011;6523;49.758;6.120;2023-03-01T10:19:24;21.30;;;13.80;;
12910;SDS011;6523;49.758;6.120;2023-03-01T10:21:55;21.60;;;13.63;;
12910;SDS011;6523;49.758;6.120;2023-03-01T10:24:27;21.30;;;13.63;;
12910;SDS011;6523;49.758;6.120;2023-03-01T10:26:57;19.80;;;14.67;;
12910;SDS011;6523;49.758;6.120;2023-03-01T10:29:48;22.17;;;13.63;;
12910;SDS011;6523;49.758;6.120;2023-03-01T10:32:27;19.50;;;14.03;;
12910;SDS011;6523;49.758;6.120;2023-03-01T10:34:53;20.87;;;14.80;;
12910;SDS011;6523;49.758;6.120;2023-03-01T10:37:19;21.73;;;13.83;;
12910;SDS011;6523;49.758;6.120;2023-03-01T10:40:04;21.50;;;13.63;;
12910;SDS011;6523;49.758;6.120;2023-03-01T10:42:38;22.47;;;14.70;;
12910;SDS011;6523;49.758;6.120;2023-03-01T10:50:51;18.60;;;13.90;;
12910;SDS011;6523;49.758;6.120;2023-03-01T10:58:34;18.33;;;13.67;;
12910;SDS011;6523;49.758;6.120;2023-03-01T11:01:05;19.83;;;14.47;;
12910;SDS011;6523;49.758;6.120;2023-03-01T11:03:40;19.63;;;14.07;;
12910;SDS011;6523;49.758;6.120;2023-03-01T11:08:42;18.17;;;14.07;;
12910;SDS011;6523;49.758;6.120;2023-03-01T11:13:38;18.47;;;13.80;;
12910;SDS011;6523;49.758;6.120;2023-03-01T11:16:22;19.97;;;13.67;;
12910;SDS011;6523;49.758;6.120;2023-03-01T11:21:33;17.07;;;13.57;;
12910;SDS011;6523;49.758;6.120;2023-03-01T11:24:01;18.33;;;14.07;;
12910;SDS011;6523;49.758;6.120;2023-03-01T11:26:29;18.73;;;14.07;;
12910;SDS011;6523;49.758;6.120;2023-03-01T11:29:00;17.67;;;13.90;;
12910;SDS011;6523;49.758;6.120;2023-03-01T11:31:30;18.40;;;13.97;;
12910;SDS011;6523;49.758;6.120;2023-03-01T11:34:07;17.83;;;13.90;;
12910;SDS011;6523;49.758;6.120;2023-03-01T11:42:12;17.93;;;13.67;;
12910;SDS011;6523;49.758;6.120;2023-03-01T11:44:59;18.13;;;13.40;;
12910;SDS011;6523;49.758;6.120;2023-03-01T11:50:24;18.10;;;14.10;;
12910;SDS011;6523;49.758;6.120;2023-03-01T11:53:17;17.23;;;12.83;;
12910;SDS011;6523;49.758;6.120;2023-03-01T12:03:49;19.70;;;13.47;;
12910;SDS011;6523;49.758;6.120;2023-03-01T12:09:23;16.20;;;13.07;;
12910;SDS011;6523;49.758;6.120;2023-03-01T12:20:23;19.73;;;14.07;;
12910;SDS011;6523;49.758;6.120;2023-03-01T12:26:21;16.53;;;13.67;;
12910;SDS011;6523;49.758;6.120;2023-03-01T12:28:57;16.40;;;12.87;;
12910;SDS011;6523;49.758;6.120;2023-03-01T12:40:17;14.70;;;13.03;;
12910;SDS011;6523;49.758;6.120;2023-03-01T12:42:50;18.07;;;13.23;;
12910;SDS011;6523;49.758;6.120;2023-03-01T12:45:49;20.33;;;13.47;;
12910;SDS011;6523;49.758;6.120;2023-03-01T12:50:53;17.33;;;13.27;;
12910;SDS011;6523;49.758;6.120;2023-03-01T12:55:53;15.80;;;13.27;;
12910;SDS011;6523;49.758;6.120;2023-03-01T12:58:27;17.23;;;13.70;;
12910;SDS011;6523;49.758;6.120;2023-03-01T13:06:35;14.87;;;13.20;;
12910;SDS011;6523;49.758;6.120;2023-03-01T13:09:34;17.57;;;13.80;;
12910;SDS011;6523;49.758;6.120;2023-03-01T13:13:00;18.23;;;13.90;;
12910;SDS011;6523;49.758;6.120;2023-03-01T13:17:53;16.43;;;12.43;;
12910;SDS011;6523;49.758;6.120;2023-03-01T13:20:24;17.77;;;14.40;;
12910;SDS011;6523;49.758;6.120;2023-03-01T13:33:50;16.17;;;13.67;;
12910;SDS011;6523;49.758;6.120;2023-03-01T13:47:36;15.07;;;12.40;;
12910;SDS011;6523;49.758;6.120;2023-03-01T13:49:44;15.80;;;12.47;;
12910;SDS011;6523;49.758;6.120;2023-03-01T13:55:27;17.70;;;12.87;;
12910;SDS011;6523;49.758;6.120;2023-03-01T13:58:00;14.43;;;12.40;;
12910;SDS011;6523;49.758;6.120;2023-03-01T14:00:46;13.83;;;12.27;;
12910;SDS011;6523;49.758;6.120;2023-03-01T14:05:44;15.70;;;13.13;;
12910;SDS011;6523;49.758;6.120;2023-03-01T14:08:24;14.47;;;12.67;;
12910;SDS011;6523;49.758;6.120;2023-03-01T14:16:54;15.30;;;12.83;;
12910;SDS011;6523;49.758;6.120;2023-03-01T14:19:29;14.03;;;12.07;;
12910;SDS011;6523;49.758;6.120;2023-03-01T14:21:59;13.67;;;11.50;;
12910;SDS011;6523;49.758;6.120;2023-03-01T14:27:42;13.90;;;12.50;;
12910;SDS011;6523;49.758;6.120;2023-03-01T14:30:16;14.50;;;12.40;;
12910;SDS011;6523;49.758;6.120;2023-03-01T14:32:56;14.63;;;12.23;;
12910;SDS011;6523;49.758;6.120;2023-03-01T14:35:25;14.37;;;11.73;;
12910;SDS011;6523;49.758;6.120;2023-03-01T14:37:52;14.10;;;12.03;;
12910;SDS011;6523;49.758;6.120;2023-03-01T14:42:51;14.30;;;11.67;;
12910;SDS011;6523;49.758;6.120;2023-03-01T14:45:19;13.63;;;11.70;;
12910;SDS011;6523;49.758;6.120;2023-03-01T14:47:45;13.17;;;11.47;;
12910;SDS011;6523;49.758;6.120;2023-03-01T14:53:19;11.67;;;10.47;;
12910;SDS011;6523;49.758;6.120;2023-03-01T14:55:53;13.40;;;11.17;;
12910;SDS011;6523;49.758;6.120;2023-03-01T14:58:22;14.30;;;11.43;;
12910;SDS011;6523;49.758;6.120;2023-03-01T15:01:02;13.07;;;10.97;;
12910;SDS011;6523;49.758;6.120;2023-03-01T15:03:36;12.93;;;11.40;;
12910;SDS011;6523;49.758;6.120;2023-03-01T15:06:06;13.17;;;11.70;;
12910;SDS011;6523;49.758;6.120;2023-03-01T15:08:33;13.13;;;11.27;;
12910;SDS011;6523;49.758;6.120;2023-03-01T15:11:01;13.67;;;11.60;;
12910;SDS011;6523;49.758;6.120;2023-03-01T15:13:41;13.30;;;11.10;;
12910;SDS011;6523;49.758;6.120;2023-03-01T15:16:11;12.90;;;11.53;;
12910;SDS011;6523;49.758;6.120;2023-03-01T15:18:43;12.63;;;11.10;;
12910;SDS011;6523;49.758;6.120;2023-03-01T15:21:15;12.57;;;11.07;;
12910;SDS011;6523;49.758;6.120;2023-03-01T15:23:48;15.03;;;11.27;;
12910;SDS011;6523;49.758;6.120;2023-03-01T15:26:39;13.43;;;11.70;;
12910;SDS011;6523;49.758;6.120;2023-03-01T15:29:11;13.77;;;10.80;;
12910;SDS011;6523;49.758;6.120;2023-03-01T15:31:52;15.77;;;11.60;;
12910;SDS011;6523;49.758;6.120;2023-03-01T15:34:24;15.87;;;11.80;;
12910;SDS011;6523;49.758;6.120;2023-03-01T15:36:53;14.43;;;10.53;;
12910;SDS011;6523;49.758;6.120;2023-03-01T15:42:02;14.27;;;10.97;;
12910;SDS011;6523;49.758;6.120;2023-03-01T15:44:33;11.23;;;9.67;;
12910;SDS011;6523;49.758;6.120;2023-03-01T15:47:00;12.13;;;10.27;;
12910;SDS011;6523;49.758;6.120;2023-03-01T15:49:37;11.67;;;10.03;;
12910;SDS011;6523;49.758;6.120;2023-03-01T15:52:04;12.37;;;11.07;;
12910;SDS011;6523;49.758;6.120;2023-03-01T15:54:36;13.47;;;9.97;;
12910;SDS011;6523;49.758;6.120;2023-03-01T15:57:05;12.63;;;10.03;;
12910;SDS011;6523;49.758;6.120;2023-03-01T15:59:36;12.07;;;10.00;;
12910;SDS011;6523;49.758;6.120;2023-03-01T16:02:07;12.90;;;9.70;;
12910;SDS011;6523;49.758;6.120;2023-03-01T16:04:34;13.13;;;9.87;;
12910;SDS011;6523;49.758;6.120;2023-03-01T16:06:59;10.80;;;9.60;;
12910;SDS011;6523;49.758;6.120;2023-03-01T16:09:26;10.97;;;9.00;;
12910;SDS011;6523;49.758;6.120;2023-03-01T16:11:52;12.33;;;9.30;;
12910;SDS011;6523;49.758;6.120;2023-03-01T16:14:18;10.40;;;8.93;;
12910;SDS011;6523;49.758;6.120;2023-03-01T16:16:45;10.43;;;9.00;;
12910;SDS011;6523;49.758;6.120;2023-03-01T16:19:13;10.17;;;8.50;;
12910;SDS011;6523;49.758;6.120;2023-03-01T16:21:39;12.23;;;9.37;;
12910;SDS011;6523;49.758;6.120;2023-03-01T16:24:05;9.33;;;8.43;;
12910;SDS011;6523;49.758;6.120;2023-03-01T16:26:31;9.30;;;8.30;;
12910;SDS011;6523;49.758;6.120;2023-03-01T16:28:58;10.20;;;8.17;;
12910;SDS011;6523;49.758;6.120;2023-03-01T16:31:24;11.40;;;8.53;;
12910;SDS011;6523;49.758;6.120;2023-03-01T16:33:55;10.23;;;8.53;;
12910;SDS011;6523;49.758;6.120;2023-03-01T16:36:22;11.17;;;8.23;;
12910;SDS011;6523;49.758;6.120;2023-03-01T16:38:50;14.13;;;8.70;;
12910;SDS011;6523;49.758;6.120;2023-03-01T16:41:17;11.10;;;9.17;;
12910;SDS011;6523;49.758;6.120;2023-03-01T16:43:46;10.40;;;8.47;;
12910;SDS011;6523;49.758;6.120;2023-03-01T16:46:13;9.87;;;8.77;;
12910;SDS011;6523;49.758;6.120;2023-03-01T16:48:44;9.27;;;8.30;;
12910;SDS011;6523;49.758;6.120;2023-03-01T16:51:11;11.27;;;8.90;;
12910;SDS011;6523;49.758;6.120;2023-03-01T16:53:37;10.40;;;8.60;;
12910;SDS011;6523;49.758;6.120;2023-03-01T16:56:04;8.83;;;7.93;;
12910;SDS011;6523;49.758;6.120;2023-03-01T16:58:31;10.87;;;8.90;;
12910;SDS011;6523;49.758;6.120;2023-03-01T17:01:01;10.83;;;8.73;;
12910;SDS011;6523;49.758;6.120;2023-03-01T17:03:32;12.13;;;8.50;;
12910;SDS011;6523;49.758;6.120;2023-03-01T17:06:01;9.13;;;8.00;;
12910;SDS011;6523;49.758;6.120;2023-03-01T17:08:31;9.50;;;7.93;;